createdAt,value
2023-01-08T00:00:48.415Z,100.00
2023-01-08T00:03:15.119Z,100.00
2023-01-08T00:05:41.672Z,100.00
2023-01-08T00:08:11.033Z,100.00
2023-01-08T00:10:38.177Z,100.00
2023-01-08T00:13:05.594Z,100.00
2023-01-08T00:15:32.808Z,100.00
2023-01-08T00:17:59.452Z,100.00
2023-01-08T00:20:26.172Z,100.00
2023-01-08T00:22:52.849Z,100.00
2023-01-08T00:25:19.615Z,100.00
2023-01-08T00:27:46.429Z,100.00
2023-01-08T00:30:13.176Z,100.00
2023-01-08T00:32:39.666Z,100.00
2023-01-08T00:35:06.392Z,100.00
2023-01-08T00:37:32.859Z,100.00
2023-01-08T00:39:59.301Z,100.00
2023-01-08T00:42:25.763Z,100.00
2023-01-08T00:44:52.287Z,100.00
2023-01-08T00:47:18.757Z,100.00
2023-01-08T00:49:45.209Z,100.00
2023-01-08T00:52:12.127Z,100.00
2023-01-08T00:54:38.584Z,100.00
2023-01-08T00:57:05.022Z,100.00
2023-01-08T00:59:31.445Z,100.00
2023-01-08T01:01:58.013Z,100.00
2023-01-08T01:04:25.967Z,100.00
2023-01-08T01:06:52.432Z,100.00
2023-01-08T01:09:18.916Z,100.00
2023-01-08T01:11:45.329Z,100.00
2023-01-08T01:14:11.760Z,100.00
2023-01-08T01:16:40.098Z,100.00
2023-01-08T01:19:06.602Z,100.00
2023-01-08T01:21:33.099Z,100.00
2023-01-08T01:24:00.924Z,100.00
2023-01-08T01:26:27.867Z,100.00
2023-01-08T01:28:55.644Z,100.00
2023-01-08T01:31:22.513Z,100.00
2023-01-08T01:33:49.852Z,100.00
2023-01-08T01:36:17.417Z,100.00
2023-01-08T01:38:44.813Z,100.00
2023-01-08T01:41:24.847Z,100.00
2023-01-08T01:43:51.606Z,100.00
2023-01-08T01:46:28.264Z,100.00
2023-01-08T01:48:56.814Z,100.00
2023-01-08T01:51:25.782Z,100.00
2023-01-08T01:53:52.187Z,100.00
2023-01-08T01:56:18.623Z,100.00
2023-01-08T01:58:45.104Z,100.00
2023-01-08T02:01:12.117Z,100.00
2023-01-08T02:03:39.599Z,100.00
2023-01-08T02:06:06.179Z,100.00
2023-01-08T02:08:35.512Z,100.00
2023-01-08T02:11:06.851Z,100.00
2023-01-08T02:13:36.735Z,100.00
2023-01-08T02:16:06.148Z,100.00
2023-01-08T02:18:35.341Z,100.00
2023-01-08T02:21:05.443Z,100.00
2023-01-08T02:23:53.209Z,100.00
2023-01-08T02:26:31.131Z,100.00
2023-01-08T02:29:00.770Z,100.00
2023-01-08T02:31:28.359Z,100.00
2023-01-08T02:33:54.852Z,100.00
2023-01-08T02:36:27.138Z,100.00
2023-01-08T02:39:00.430Z,100.00
2023-01-08T02:41:34.003Z,100.00
2023-01-08T02:44:00.901Z,100.00
2023-01-08T02:46:30.160Z,100.00
2023-01-08T02:49:01.685Z,100.00
2023-01-08T02:51:29.842Z,100.00
2023-01-08T02:53:59.241Z,100.00
2023-01-08T02:56:32.086Z,100.00
2023-01-08T02:58:59.715Z,100.00
2023-01-08T03:01:27.720Z,100.00
2023-01-08T03:03:56.871Z,100.00
2023-01-08T03:06:23.531Z,100.00
2023-01-08T03:08:51.781Z,100.00
2023-01-08T03:11:19.536Z,100.00
2023-01-08T03:13:51.065Z,100.00
2023-01-08T03:16:20.758Z,100.00
2023-01-08T03:18:50.743Z,100.00
2023-01-08T03:21:18.193Z,100.00
2023-01-08T03:23:45.269Z,100.00
2023-01-08T03:26:13.912Z,100.00
2023-01-08T03:28:44.352Z,100.00
2023-01-08T03:31:11.584Z,100.00
2023-01-08T03:33:38.578Z,100.00
2023-01-08T03:36:06.529Z,100.00
2023-01-08T03:38:35.412Z,100.00
2023-01-08T03:41:07.290Z,100.00
2023-01-08T03:43:33.834Z,100.00
2023-01-08T03:46:02.358Z,100.00
2023-01-08T03:48:30.396Z,100.00
2023-01-08T03:50:56.815Z,100.00
2023-01-08T03:53:23.243Z,100.00
2023-01-08T03:55:49.688Z,100.00
2023-01-08T03:58:16.115Z,100.00
2023-01-08T04:00:42.583Z,100.00
2023-01-08T04:03:09.610Z,100.00
2023-01-08T04:05:36.192Z,100.00
2023-01-08T04:08:02.641Z,100.00
2023-01-08T04:10:29.097Z,100.00
2023-01-08T04:12:55.591Z,100.00
2023-01-08T04:15:22.159Z,100.00
2023-01-08T04:17:48.576Z,100.00
2023-01-08T04:20:15.048Z,100.00
2023-01-08T04:22:41.637Z,100.00
2023-01-08T04:25:08.306Z,100.00
2023-01-08T04:27:34.755Z,100.00
2023-01-08T04:30:01.198Z,100.00
2023-01-08T04:32:27.693Z,100.00
2023-01-08T04:34:54.113Z,100.00
2023-01-08T04:37:20.641Z,100.00
2023-01-08T04:39:47.215Z,100.00
2023-01-08T04:42:13.732Z,100.00
2023-01-08T04:44:40.185Z,100.00
2023-01-08T04:47:06.636Z,100.00
2023-01-08T04:49:33.120Z,100.00
2023-01-08T04:51:59.556Z,100.00
2023-01-08T04:54:26.043Z,100.00
2023-01-08T04:56:52.572Z,100.00
2023-01-08T04:59:19.194Z,100.00
2023-01-08T05:01:45.781Z,100.00
2023-01-08T05:04:12.385Z,100.00
2023-01-08T05:06:38.895Z,100.00
2023-01-08T05:09:05.337Z,100.00
2023-01-08T05:11:31.765Z,100.00
2023-01-08T05:13:58.309Z,100.00
2023-01-08T05:16:24.776Z,100.00
2023-01-08T05:18:51.241Z,100.00
2023-01-08T05:21:17.946Z,100.00
2023-01-08T05:23:45.605Z,100.00
2023-01-08T05:26:12.197Z,100.00
2023-01-08T05:28:38.612Z,100.00
2023-01-08T05:31:05.269Z,100.00
2023-01-08T05:33:31.746Z,100.00
2023-01-08T05:35:58.181Z,100.00
2023-01-08T05:38:24.613Z,100.00
2023-01-08T05:40:54.201Z,100.00
2023-01-08T05:43:20.631Z,100.00
2023-01-08T05:45:47.082Z,100.00
2023-01-08T05:48:13.518Z,100.00
2023-01-08T05:50:39.971Z,100.00
2023-01-08T05:53:07.575Z,100.00
2023-01-08T05:55:34.385Z,100.00
2023-01-08T05:58:04.665Z,100.00
2023-01-08T06:00:31.439Z,100.00
2023-01-08T06:02:58.194Z,100.00
2023-01-08T06:05:24.808Z,100.00
2023-01-08T06:07:51.251Z,100.00
2023-01-08T06:10:17.766Z,100.00
2023-01-08T06:12:44.203Z,100.00
2023-01-08T06:15:11.948Z,100.00
2023-01-08T06:17:38.440Z,100.00
2023-01-08T06:20:05.114Z,100.00
2023-01-08T06:22:33.478Z,100.00
2023-01-08T06:25:00.117Z,100.00
2023-01-08T06:27:26.636Z,100.00
2023-01-08T06:29:53.091Z,100.00
2023-01-08T06:32:19.672Z,100.00
2023-01-08T06:34:46.128Z,100.00
2023-01-08T06:37:12.703Z,100.00
2023-01-08T06:39:39.141Z,100.00
2023-01-08T06:42:05.600Z,100.00
2023-01-08T06:44:32.060Z,100.00
2023-01-08T06:46:58.520Z,100.00
2023-01-08T06:49:24.939Z,100.00
2023-01-08T06:51:51.419Z,100.00
2023-01-08T06:54:17.878Z,100.00
2023-01-08T06:56:53.293Z,100.00
2023-01-08T06:59:20.727Z,100.00
2023-01-08T07:01:47.296Z,100.00
2023-01-08T07:04:13.811Z,100.00
2023-01-08T07:06:40.260Z,100.00
2023-01-08T07:09:06.768Z,100.00
2023-01-08T07:11:33.648Z,100.00
2023-01-08T07:14:00.143Z,100.00
2023-01-08T07:16:26.668Z,100.00
2023-01-08T07:18:53.146Z,100.00
2023-01-08T07:21:21.075Z,100.00
2023-01-08T07:23:48.570Z,100.00
2023-01-08T07:26:15.017Z,100.00
2023-01-08T07:28:42.056Z,100.00
2023-01-08T07:31:08.843Z,100.00
2023-01-08T07:33:35.621Z,100.00
2023-01-08T07:36:02.111Z,100.00
2023-01-08T07:38:28.757Z,100.00
2023-01-08T07:40:57.134Z,100.00
2023-01-08T07:43:23.738Z,100.00
2023-01-08T07:45:50.191Z,100.00
2023-01-08T07:48:16.701Z,100.00
2023-01-08T07:50:43.999Z,100.00
2023-01-08T07:53:11.491Z,100.00
2023-01-08T07:55:37.918Z,100.00
2023-01-08T07:58:08.883Z,100.00
2023-01-08T08:00:35.778Z,100.00
2023-01-08T08:03:03.329Z,100.00
2023-01-08T08:05:29.916Z,100.00
2023-01-08T08:07:56.422Z,100.00
2023-01-08T08:10:22.846Z,100.00
2023-01-08T08:12:49.310Z,100.00
2023-01-08T08:15:15.805Z,100.00
2023-01-08T08:17:48.897Z,100.00
2023-01-08T08:20:15.756Z,100.00
2023-01-08T08:22:42.218Z,100.00
2023-01-08T08:25:08.784Z,100.00
2023-01-08T08:27:35.219Z,100.00
2023-01-08T08:30:01.713Z,100.00
2023-01-08T08:32:28.151Z,100.00
2023-01-08T08:34:54.581Z,100.00
2023-01-08T08:37:21.074Z,100.00
2023-01-08T08:39:47.601Z,100.00
2023-01-08T08:42:14.038Z,100.00
2023-01-08T08:44:42.731Z,100.00
2023-01-08T08:47:09.670Z,100.00
2023-01-08T08:49:39.976Z,100.00
2023-01-08T08:52:06.432Z,100.00
2023-01-08T08:54:32.928Z,100.00
2023-01-08T08:56:59.369Z,100.00
2023-01-08T08:59:26.083Z,100.00
2023-01-08T09:01:52.594Z,100.00
2023-01-08T09:04:19.072Z,100.00
2023-01-08T09:06:45.511Z,100.00
2023-01-08T09:09:12.158Z,100.00
2023-01-08T09:11:38.623Z,100.00
2023-01-08T09:14:05.102Z,100.00
2023-01-08T09:16:33.127Z,100.00
2023-01-08T09:18:59.657Z,100.00
2023-01-08T09:21:26.196Z,100.00
2023-01-08T09:23:52.711Z,100.00
2023-01-08T09:26:19.221Z,100.00
2023-01-08T09:28:45.932Z,100.00
2023-01-08T09:31:12.438Z,100.00
2023-01-08T09:33:38.951Z,100.00
2023-01-08T09:36:08.645Z,100.00
2023-01-08T09:38:35.162Z,100.00
2023-01-08T09:41:04.455Z,100.00
2023-01-08T09:43:32.173Z,100.00
2023-01-08T09:46:00.804Z,100.00
2023-01-08T09:48:29.885Z,100.00
2023-01-08T09:50:57.245Z,100.00
2023-01-08T09:53:24.561Z,100.00
2023-01-08T09:56:15.504Z,100.00
2023-01-08T09:58:46.699Z,100.00
2023-01-08T10:01:14.485Z,100.00
2023-01-08T10:03:46.748Z,100.00
2023-01-08T10:06:14.523Z,100.00
2023-01-08T10:08:41.305Z,100.00
2023-01-08T10:11:09.110Z,100.00
2023-01-08T10:13:37.424Z,100.00
2023-01-08T10:16:07.368Z,100.00
2023-01-08T10:18:35.078Z,100.00
2023-01-08T10:21:01.527Z,100.00
2023-01-08T10:23:28.007Z,100.00
2023-01-08T10:26:01.822Z,100.00
2023-01-08T10:28:32.551Z,100.00
2023-01-08T10:31:06.409Z,100.00
2023-01-08T10:33:40.950Z,100.00
2023-01-08T10:36:08.951Z,99.08
2023-01-08T10:38:42.024Z,99.40
2023-01-08T10:41:13.664Z,97.07
2023-01-08T10:43:54.122Z,97.90
2023-01-08T10:46:23.392Z,97.80
2023-01-08T10:49:01.278Z,97.67
2023-01-08T10:51:29.280Z,97.56
2023-01-08T10:53:58.120Z,98.08
2023-01-08T10:56:25.832Z,97.65
2023-01-08T10:58:52.424Z,96.96
2023-01-08T11:01:26.893Z,96.79
2023-01-08T11:04:05.067Z,96.03
2023-01-08T11:06:33.320Z,95.75
2023-01-08T11:09:01.580Z,96.44
2023-01-08T11:11:37.758Z,95.78
2023-01-08T11:14:05.653Z,94.85
2023-01-08T11:16:41.864Z,95.65
2023-01-08T11:19:19.559Z,95.90
2023-01-08T11:22:15.398Z,93.92
2023-01-08T11:24:42.403Z,95.30
2023-01-08T11:27:11.646Z,94.84
2023-01-08T11:29:56.097Z,95.25
2023-01-08T11:32:46.363Z,95.47
2023-01-08T11:35:25.527Z,94.61
2023-01-08T11:38:00.050Z,94.08
2023-01-08T11:40:46.735Z,93.81
2023-01-08T11:43:25.174Z,94.08
2023-01-08T11:45:54.952Z,94.20
2023-01-08T11:48:21.401Z,93.87
2023-01-08T11:51:06.331Z,93.37
2023-01-08T11:53:43.711Z,92.89
2023-01-08T11:56:28.832Z,93.54
2023-01-08T11:59:07.499Z,93.32
2023-01-08T12:01:44.788Z,91.92
2023-01-08T12:04:35.091Z,92.08
2023-01-08T12:07:09.665Z,92.96
2023-01-08T12:09:46.023Z,91.29
2023-01-08T12:12:27.749Z,92.75
2023-01-08T12:15:04.196Z,91.73
2023-01-08T12:17:33.629Z,91.49
2023-01-08T12:20:19.413Z,91.47
2023-01-08T12:22:58.581Z,91.51
2023-01-08T12:25:43.906Z,92.50
2023-01-08T12:28:22.593Z,92.08
2023-01-08T12:30:55.189Z,93.66
2023-01-08T12:33:23.798Z,92.97
2023-01-08T12:35:53.262Z,93.09
2023-01-08T12:38:27.813Z,91.89
2023-01-08T12:41:02.107Z,92.94
2023-01-08T12:43:35.527Z,92.46
2023-01-08T12:46:02.952Z,92.76
2023-01-08T12:48:31.234Z,93.00
2023-01-08T12:51:01.571Z,92.11
2023-01-08T12:53:32.648Z,91.63
2023-01-08T12:56:02.469Z,92.13
2023-01-08T12:58:33.624Z,92.64
2023-01-08T13:01:00.147Z,92.34
2023-01-08T13:03:29.419Z,91.79
2023-01-08T13:06:07.309Z,92.38
2023-01-08T13:08:35.003Z,92.51
2023-01-08T13:11:02.441Z,91.60
2023-01-08T13:13:30.777Z,92.08
2023-01-08T13:16:07.305Z,92.11
2023-01-08T13:18:34.048Z,91.07
2023-01-08T13:21:01.973Z,92.05
2023-01-08T13:23:29.879Z,92.58
2023-01-08T13:25:58.019Z,92.22
2023-01-08T13:28:24.436Z,93.35
2023-01-08T13:30:51.487Z,93.44
2023-01-08T13:33:24.062Z,93.50
2023-01-08T13:35:50.721Z,93.09
2023-01-08T13:38:18.413Z,91.35
2023-01-08T13:40:44.851Z,92.08
2023-01-08T13:43:26.617Z,93.01
2023-01-08T13:46:13.430Z,92.73
2023-01-08T13:48:47.937Z,92.74
2023-01-08T13:51:35.056Z,92.35
2023-01-08T13:54:06.837Z,92.62
2023-01-08T13:56:33.316Z,92.04
2023-01-08T13:59:02.102Z,92.02
2023-01-08T14:01:28.837Z,92.18
2023-01-08T14:03:55.342Z,92.23
2023-01-08T14:06:25.590Z,92.52
2023-01-08T14:09:14.794Z,92.15
2023-01-08T14:11:46.573Z,92.54
2023-01-08T14:14:13.955Z,93.08
2023-01-08T14:16:41.344Z,91.97
2023-01-08T14:19:08.255Z,92.17
2023-01-08T14:21:34.854Z,92.28
2023-01-08T14:24:01.356Z,92.33
2023-01-08T14:26:31.498Z,93.14
2023-01-08T14:28:57.999Z,92.28
2023-01-08T14:31:26.628Z,92.67
2023-01-08T14:33:53.819Z,92.97
2023-01-08T14:36:20.915Z,92.77
2023-01-08T14:38:50.949Z,92.11
2023-01-08T14:41:20.999Z,92.22
2023-01-08T14:43:49.984Z,92.41
2023-01-08T14:46:19.165Z,92.80
2023-01-08T14:48:46.082Z,92.40
2023-01-08T14:51:20.667Z,92.92
2023-01-08T14:53:56.273Z,93.77
2023-01-08T14:56:28.280Z,92.83
2023-01-08T14:58:55.535Z,92.44
2023-01-08T15:01:29.524Z,91.96
2023-01-08T15:04:25.343Z,92.39
2023-01-08T15:06:52.891Z,93.12
2023-01-08T15:09:30.206Z,93.43
2023-01-08T15:11:58.022Z,92.82
2023-01-08T15:14:25.297Z,93.19
2023-01-08T15:16:55.284Z,93.56
2023-01-08T15:19:26.765Z,93.08
2023-01-08T15:21:54.494Z,92.96
2023-01-08T15:24:27.614Z,94.09
2023-01-08T15:26:54.489Z,93.98
2023-01-08T15:29:23.745Z,94.50
2023-01-08T15:31:50.340Z,94.12
2023-01-08T15:34:18.720Z,94.23
2023-01-08T15:36:45.883Z,93.97
2023-01-08T15:39:12.419Z,94.28
2023-01-08T15:41:58.274Z,93.06
2023-01-08T15:44:25.457Z,93.75
2023-01-08T15:46:52.009Z,93.40
2023-01-08T15:49:18.574Z,93.66
2023-01-08T15:51:46.706Z,93.78
2023-01-08T15:54:13.267Z,94.18
2023-01-08T15:56:39.728Z,94.08
2023-01-08T15:59:06.297Z,94.66
2023-01-08T16:01:34.798Z,94.80
2023-01-08T16:04:01.414Z,94.53
2023-01-08T16:06:27.907Z,94.40
2023-01-08T16:08:57.699Z,95.14
2023-01-08T16:11:24.148Z,95.33
2023-01-08T16:13:50.588Z,95.24
2023-01-08T16:16:17.419Z,94.59
2023-01-08T16:18:44.206Z,94.91
2023-01-08T16:21:11.071Z,95.05
2023-01-08T16:23:38.182Z,94.77
2023-01-08T16:26:05.562Z,94.96
2023-01-08T16:28:31.992Z,94.90
2023-01-08T16:30:58.466Z,94.73
2023-01-08T16:33:24.896Z,94.58
2023-01-08T16:35:58.035Z,95.13
2023-01-08T16:38:27.484Z,94.10
2023-01-08T16:40:56.689Z,94.26
2023-01-08T16:43:27.425Z,94.49
2023-01-08T16:45:55.188Z,94.33
2023-01-08T16:48:22.739Z,94.32
2023-01-08T16:50:49.523Z,94.32
2023-01-08T16:53:21.616Z,93.44
2023-01-08T16:55:48.070Z,93.11
2023-01-08T16:58:14.650Z,93.29
2023-01-08T17:00:41.163Z,93.75
2023-01-08T17:03:07.651Z,93.12
2023-01-08T17:05:36.083Z,93.34
2023-01-08T17:08:02.500Z,93.71
2023-01-08T17:10:28.930Z,93.84
2023-01-08T17:12:55.369Z,93.74
2023-01-08T17:15:21.807Z,93.57
2023-01-08T17:17:48.277Z,92.96
2023-01-08T17:20:15.092Z,93.35
2023-01-08T17:22:41.513Z,93.33
2023-01-08T17:25:08.215Z,93.24
2023-01-08T17:27:35.066Z,93.25
2023-01-08T17:30:01.597Z,93.11
2023-01-08T17:32:29.386Z,93.26
2023-01-08T17:34:55.943Z,92.37
2023-01-08T17:37:22.459Z,93.08
2023-01-08T17:39:48.935Z,93.24
2023-01-08T17:42:24.443Z,93.25
2023-01-08T17:44:51.565Z,93.23
2023-01-08T17:47:19.780Z,93.65
2023-01-08T17:49:53.240Z,93.75
2023-01-08T17:52:20.293Z,94.03
2023-01-08T17:54:52.932Z,93.60
2023-01-08T17:57:20.946Z,93.22
2023-01-08T17:59:48.410Z,93.36
2023-01-08T18:02:16.179Z,93.91
2023-01-08T18:04:43.974Z,94.24
2023-01-08T18:07:10.621Z,93.83
2023-01-08T18:09:37.209Z,93.63
2023-01-08T18:12:03.769Z,93.60
2023-01-08T18:14:30.214Z,94.08
2023-01-08T18:16:56.768Z,93.67
2023-01-08T18:19:23.284Z,93.99
2023-01-08T18:21:49.731Z,93.74
2023-01-08T18:24:16.247Z,94.01
2023-01-08T18:26:42.985Z,93.88
2023-01-08T18:29:09.438Z,93.30
2023-01-08T18:31:35.942Z,94.16
2023-01-08T18:34:03.821Z,93.96
2023-01-08T18:36:30.415Z,94.08
2023-01-08T18:38:57.495Z,94.24
2023-01-08T18:41:42.317Z,94.41
2023-01-08T18:44:10.044Z,94.54
2023-01-08T18:46:37.093Z,94.62
2023-01-08T18:49:03.987Z,93.89
2023-01-08T18:51:30.432Z,94.61
2023-01-08T18:53:56.949Z,94.73
2023-01-08T18:56:31.290Z,94.52
2023-01-08T18:58:57.776Z,94.56
2023-01-08T19:01:24.839Z,94.78
2023-01-08T19:03:51.423Z,94.81
2023-01-08T19:06:18.216Z,94.34
2023-01-08T19:08:45.009Z,94.36
2023-01-08T19:11:11.835Z,94.29
2023-01-08T19:13:38.673Z,94.57
2023-01-08T19:16:05.926Z,94.85
2023-01-08T19:18:32.664Z,95.33
2023-01-08T19:21:00.111Z,95.18
2023-01-08T19:23:26.617Z,94.77
2023-01-08T19:25:53.201Z,95.31
2023-01-08T19:28:19.682Z,94.95
2023-01-08T19:30:53.525Z,94.68
2023-01-08T19:33:19.960Z,95.02
2023-01-08T19:35:46.399Z,94.66
2023-01-08T19:38:12.927Z,94.96
2023-01-08T19:40:39.492Z,94.49
2023-01-08T19:43:24.740Z,94.60
2023-01-08T19:45:51.282Z,94.43
2023-01-08T19:48:18.071Z,95.15
2023-01-08T19:50:46.909Z,95.53
2023-01-08T19:53:14.569Z,95.31
2023-01-08T19:55:41.281Z,95.45
2023-01-08T19:58:07.929Z,94.98
2023-01-08T20:00:37.647Z,95.48
2023-01-08T20:03:04.667Z,95.82
2023-01-08T20:05:31.519Z,96.13
2023-01-08T20:07:57.969Z,96.21
2023-01-08T20:10:24.595Z,95.81
2023-01-08T20:12:51.023Z,95.92
2023-01-08T20:15:19.251Z,95.75
2023-01-08T20:17:45.764Z,96.40
2023-01-08T20:20:12.523Z,96.32
2023-01-08T20:22:39.001Z,96.23
2023-01-08T20:25:06.203Z,96.14
2023-01-08T20:27:32.698Z,96.58
2023-01-08T20:29:59.200Z,96.09
2023-01-08T20:32:25.643Z,96.16
2023-01-08T20:34:52.123Z,96.44
2023-01-08T20:37:18.548Z,96.51
2023-01-08T20:39:46.123Z,96.53
2023-01-08T20:42:17.705Z,96.47
2023-01-08T20:44:53.910Z,96.67
2023-01-08T20:47:20.340Z,95.91
2023-01-08T20:49:46.775Z,96.52
2023-01-08T20:52:14.808Z,96.15
2023-01-08T20:54:41.250Z,96.75
2023-01-08T20:57:07.792Z,96.97
2023-01-08T20:59:34.291Z,97.08
2023-01-08T21:02:01.309Z,97.70
2023-01-08T21:04:27.881Z,97.65
2023-01-08T21:06:54.395Z,97.77
2023-01-08T21:09:20.953Z,97.88
2023-01-08T21:11:47.428Z,97.78
2023-01-08T21:14:13.884Z,96.94
2023-01-08T21:16:40.678Z,97.29
2023-01-08T21:19:10.271Z,97.24
2023-01-08T21:21:40.015Z,98.06
2023-01-08T21:24:09.027Z,98.03
2023-01-08T21:26:36.922Z,97.48
2023-01-08T21:29:04.264Z,98.46
2023-01-08T21:31:30.742Z,98.88
2023-01-08T21:33:58.404Z,99.21
2023-01-08T21:36:26.303Z,99.83
2023-01-08T21:38:53.158Z,99.50
2023-01-08T21:41:39.586Z,99.54
2023-01-08T21:44:28.845Z,99.81
2023-01-08T21:46:55.303Z,99.77
2023-01-08T21:49:21.747Z,99.64
2023-01-08T21:52:06.725Z,100.00
2023-01-08T21:54:33.153Z,100.00
2023-01-08T21:56:59.601Z,99.53
2023-01-08T21:59:26.046Z,99.86
2023-01-08T22:01:52.519Z,99.77
2023-01-08T22:04:19.070Z,99.73
2023-01-08T22:06:45.507Z,100.00
2023-01-08T22:09:11.960Z,100.00
2023-01-08T22:11:38.589Z,100.00
2023-01-08T22:14:05.047Z,100.00
2023-01-08T22:16:31.569Z,100.00
2023-01-08T22:18:58.085Z,100.00
2023-01-08T22:21:24.564Z,100.00
2023-01-08T22:23:51.171Z,100.00
2023-01-08T22:26:20.095Z,100.00
2023-01-08T22:28:46.722Z,100.00
2023-01-08T22:31:14.029Z,100.00
2023-01-08T22:33:40.475Z,100.00
2023-01-08T22:36:08.736Z,100.00
2023-01-08T22:38:35.343Z,100.00
2023-01-08T22:41:02.144Z,100.00
2023-01-08T22:43:28.783Z,100.00
2023-01-08T22:45:56.336Z,100.00
2023-01-08T22:48:23.344Z,100.00
2023-01-08T22:50:50.019Z,100.00
2023-01-08T22:53:16.470Z,100.00
2023-01-08T22:55:43.720Z,100.00
2023-01-08T22:58:10.169Z,99.61
2023-01-08T23:00:38.235Z,99.93
2023-01-08T23:03:06.018Z,99.63
2023-01-08T23:05:33.076Z,99.73
2023-01-08T23:07:59.702Z,99.25
2023-01-08T23:10:26.589Z,99.51
2023-01-08T23:12:53.079Z,99.26
2023-01-08T23:15:20.015Z,99.02
2023-01-08T23:17:52.230Z,98.94
2023-01-08T23:20:19.699Z,99.00
2023-01-08T23:22:47.096Z,98.67
2023-01-08T23:25:13.840Z,99.26
2023-01-08T23:27:40.514Z,98.93
2023-01-08T23:30:07.268Z,99.19
2023-01-08T23:32:33.702Z,98.77
2023-01-08T23:35:01.132Z,98.78
2023-01-08T23:37:27.584Z,98.93
2023-01-08T23:39:54.033Z,98.27
2023-01-08T23:42:20.491Z,98.10
2023-01-08T23:44:48.847Z,98.51
2023-01-08T23:47:15.294Z,98.47
2023-01-08T23:49:41.798Z,98.95
2023-01-08T23:52:08.233Z,98.42
2023-01-08T23:54:35.960Z,98.73
2023-01-08T23:57:02.986Z,98.85
2023-01-08T23:59:29.508Z,98.73
